Time;durP1;ratioP1;P1;durP2;ratioP2;P2;SDS_P1;SDS_P2;PMS_P1;PMS_P2;Temp;Humidity;BMP_temperature;BMP_pressure;BME280_temperature;BME280_humidity;BME280_pressure;Samples;Min_cycle;Max_cycle;Signal;HPM_P1;HPM_P2
2021/03/25 00:00:28;;;;;;;611.20;294.63;;;;;;;;;;5024977;28;20372;-77
2021/03/25 00:02:56;;;;;;;594.45;286.27;;;;;;;;;;5027116;28;20357;-76
2021/03/25 00:05:23;;;;;;;569.60;274.90;;;;;;;;;;5031199;28;20085;-76
2021/03/25 00:07:49;;;;;;;589.03;278.27;;;;;;;;;;5011596;28;20034;-76
2021/03/25 00:10:17;;;;;;;583.28;276.70;;;;;;;;;;5023680;28;20044;-76
2021/03/25 00:12:43;;;;;;;582.78;274.95;;;;;;;;;;5015558;28;20510;-77
2021/03/25 00:15:10;;;;;;;586.72;276.45;;;;;;;;;;5011055;28;20108;-76
2021/03/25 00:17:36;;;;;;;566.75;273.90;;;;;;;;;;5025111;28;20029;-77
2021/03/25 00:20:02;;;;;;;561.17;272.67;;;;;;;;;;5031782;28;20022;-76
2021/03/25 00:22:27;;;;;;;584.35;268.75;;;;;;;;;;5026598;28;20060;-76
2021/03/25 00:24:53;;;;;;;580.25;268.67;;;;;;;;;;5017386;28;20029;-75
2021/03/25 00:27:19;;;;;;;570.95;263.58;;;;;;;;;;5027144;28;20021;-76
2021/03/25 00:29:45;;;;;;;547.80;279.02;;;;;;;;;;5027444;28;20033;-75
2021/03/25 00:32:11;;;;;;;538.88;263.90;;;;;;;;;;5011532;28;20428;-75
2021/03/25 00:34:37;;;;;;;515.58;262.58;;;;;;;;;;5023869;28;20470;-76
2021/03/25 00:37:03;;;;;;;507.85;252.48;;;;;;;;;;5009816;28;20478;-75
2021/03/25 00:39:29;;;;;;;510.17;270.73;;;;;;;;;;5016845;28;20021;-76
2021/03/25 00:41:55;;;;;;;503.23;256.88;;;;;;;;;;5016648;28;20014;-80
2021/03/25 00:44:21;;;;;;;512.10;266.00;;;;;;;;;;5010300;28;20029;-76
2021/03/25 00:46:47;;;;;;;505.75;256.67;;;;;;;;;;5029328;28;20040;-77
2021/03/25 00:49:13;;;;;;;500.65;253.60;;;;;;;;;;5015901;28;20025;-76
2021/03/25 00:51:39;;;;;;;497.17;249.65;;;;;;;;;;5024719;28;20026;-76
2021/03/25 00:54:05;;;;;;;515.00;260.40;;;;;;;;;;5021674;28;20399;-76
2021/03/25 00:56:32;;;;;;;513.40;257.30;;;;;;;;;;5033336;28;20021;-76
2021/03/25 00:58:58;;;;;;;515.80;261.00;;;;;;;;;;5007462;28;20018;-77
2021/03/25 01:01:27;;;;;;;516.80;262.27;;;;;;;;;;5027449;28;20519;-76
2021/03/25 01:03:53;;;;;;;502.08;256.58;;;;;;;;;;5026822;28;20025;-76
2021/03/25 01:06:19;;;;;;;498.52;261.38;;;;;;;;;;5019348;28;20559;-77
2021/03/25 01:08:45;;;;;;;495.80;256.40;;;;;;;;;;5028520;28;20030;-76
2021/03/25 01:11:18;;;;;;;520.22;259.85;;;;;;;;;;5020672;28;20056;-76
2021/03/25 01:13:47;;;;;;;506.83;258.92;;;;;;;;;;5026770;28;20389;-75
2021/03/25 01:16:15;;;;;;;511.75;255.32;;;;;;;;;;5027515;28;20099;-75
2021/03/25 01:18:41;;;;;;;510.55;258.15;;;;;;;;;;5023052;28;20163;-75
2021/03/25 01:21:07;;;;;;;509.73;252.77;;;;;;;;;;5025707;28;20018;-76
2021/03/25 01:23:33;;;;;;;508.52;264.95;;;;;;;;;;5012838;28;20036;-75
2021/03/25 01:26:00;;;;;;;508.83;257.13;;;;;;;;;;5028082;28;20060;-76
2021/03/25 01:28:26;;;;;;;507.40;256.73;;;;;;;;;;5023257;28;20391;-75
2021/03/25 01:30:52;;;;;;;510.50;262.90;;;;;;;;;;5024959;28;20045;-76
2021/03/25 01:33:19;;;;;;;525.40;265.60;;;;;;;;;;5014525;28;20483;-75
2021/03/25 01:35:45;;;;;;;519.53;268.45;;;;;;;;;;5005940;28;20120;-75
2021/03/25 01:38:14;;;;;;;524.05;261.52;;;;;;;;;;5017725;28;20686;-75
2021/03/25 01:40:47;;;;;;;519.35;264.48;;;;;;;;;;5024231;28;20021;-76
2021/03/25 01:43:21;;;;;;;519.53;261.38;;;;;;;;;;5024858;28;20057;-76
2021/03/25 01:45:58;;;;;;;515.90;264.95;;;;;;;;;;5023163;28;20034;-76
2021/03/25 01:48:26;;;;;;;501.98;254.38;;;;;;;;;;5006192;28;20052;-77
2021/03/25 01:50:53;;;;;;;514.22;273.20;;;;;;;;;;5027416;28;20009;-76
2021/03/25 01:53:27;;;;;;;524.17;265.77;;;;;;;;;;5021950;28;20018;-76
2021/03/25 01:56:04;;;;;;;516.78;261.55;;;;;;;;;;5025275;28;20025;-76
2021/03/25 01:58:50;;;;;;;517.22;269.27;;;;;;;;;;5022363;28;20025;-76
2021/03/25 02:01:17;;;;;;;515.92;265.27;;;;;;;;;;5005983;28;20017;-75
2021/03/25 02:03:43;;;;;;;513.33;272.50;;;;;;;;;;5026468;28;20017;-76
2021/03/25 02:06:11;;;;;;;516.40;273.30;;;;;;;;;;5007966;28;20063;-76
2021/03/25 02:08:54;;;;;;;507.67;271.67;;;;;;;;;;5016872;28;20025;-77
2021/03/25 02:11:30;;;;;;;515.33;271.10;;;;;;;;;;5025875;28;20024;-76
2021/03/25 02:13:59;;;;;;;513.53;276.45;;;;;;;;;;5023274;28;20033;-76
2021/03/25 02:16:37;;;;;;;502.20;262.33;;;;;;;;;;5003719;28;20049;-75
2021/03/25 02:19:26;;;;;;;512.45;267.08;;;;;;;;;;5021364;28;20025;-75
2021/03/25 02:21:55;;;;;;;512.55;274.75;;;;;;;;;;4978753;28;20592;-76
2021/03/25 02:24:21;;;;;;;516.13;271.08;;;;;;;;;;5024499;28;20021;-76
2021/03/25 02:26:47;;;;;;;507.98;266.27;;;;;;;;;;5020081;28;20045;-77
2021/03/25 02:29:32;;;;;;;506.63;274.73;;;;;;;;;;5024382;28;20032;-75
2021/03/25 02:32:00;;;;;;;511.50;269.48;;;;;;;;;;5021217;28;20037;-76
2021/03/25 02:34:31;;;;;;;495.75;267.38;;;;;;;;;;5010938;28;20021;-75
2021/03/25 02:36:59;;;;;;;501.55;270.92;;;;;;;;;;5026647;28;20247;-75
2021/03/25 02:39:28;;;;;;;497.30;269.98;;;;;;;;;;5020497;28;20663;-76
2021/03/25 02:41:57;;;;;;;498.40;278.00;;;;;;;;;;5024281;28;20441;-76
2021/03/25 02:44:26;;;;;;;503.88;273.52;;;;;;;;;;5020222;28;20436;-76
2021/03/25 02:46:55;;;;;;;502.38;272.98;;;;;;;;;;5023851;28;20041;-76
2021/03/25 02:49:24;;;;;;;500.63;273.02;;;;;;;;;;5020782;28;20410;-75
2021/03/25 02:52:03;;;;;;;505.23;273.02;;;;;;;;;;5026188;28;20025;-77
2021/03/25 02:54:30;;;;;;;502.73;273.38;;;;;;;;;;5021911;28;20025;-76
2021/03/25 02:56:59;;;;;;;502.48;274.08;;;;;;;;;;5023781;28;20168;-76
2021/03/25 02:59:27;;;;;;;510.60;281.40;;;;;;;;;;5006103;28;20022;-75
2021/03/25 03:01:55;;;;;;;504.77;276.67;;;;;;;;;;5023420;28;20029;-76
2021/03/25 03:04:21;;;;;;;496.77;271.17;;;;;;;;;;5003293;28;20017;-77
2021/03/25 03:06:49;;;;;;;498.80;275.13;;;;;;;;;;5023608;28;20022;-75
2021/03/25 03:09:23;;;;;;;497.13;269.60;;;;;;;;;;5023199;28;20327;-76
2021/03/25 03:11:51;;;;;;;497.25;278.00;;;;;;;;;;5023826;28;20028;-76
2021/03/25 03:14:20;;;;;;;509.60;279.55;;;;;;;;;;5009894;28;20092;-76
2021/03/25 03:16:49;;;;;;;511.08;277.52;;;;;;;;;;5005851;28;20336;-75
2021/03/25 03:19:34;;;;;;;517.72;279.52;;;;;;;;;;5021770;28;20021;-76
2021/03/25 03:22:02;;;;;;;513.75;280.33;;;;;;;;;;5022543;28;20025;-76
2021/03/25 03:24:28;;;;;;;521.58;287.73;;;;;;;;;;5021943;28;20022;-76
2021/03/25 03:26:56;;;;;;;516.53;286.20;;;;;;;;;;5024398;28;20041;-75
2021/03/25 03:29:22;;;;;;;532.47;298.80;;;;;;;;;;5022586;28;20051;-76
2021/03/25 03:31:53;;;;;;;528.47;294.33;;;;;;;;;;5009026;28;20467;-76
2021/03/25 03:34:25;;;;;;;526.05;295.75;;;;;;;;;;5011506;28;20014;-75
2021/03/25 03:36:52;;;;;;;529.47;293.95;;;;;;;;;;5018483;28;20029;-75
2021/03/25 03:39:21;;;;;;;522.45;287.10;;;;;;;;;;5022717;28;20022;-77
2021/03/25 03:41:59;;;;;;;529.15;292.55;;;;;;;;;;5019595;28;20014;-75
2021/03/25 03:44:26;;;;;;;529.92;289.25;;;;;;;;;;5021115;28;20017;-75
2021/03/25 03:46:54;;;;;;;535.22;293.75;;;;;;;;;;5021304;28;20037;-75
2021/03/25 03:49:33;;;;;;;536.22;290.33;;;;;;;;;;5022918;28;20025;-76
2021/03/25 03:52:10;;;;;;;537.92;292.45;;;;;;;;;;5024152;28;20045;-75
2021/03/25 03:54:37;;;;;;;540.00;289.98;;;;;;;;;;5010061;28;20024;-75
2021/03/25 03:57:06;;;;;;;540.03;294.05;;;;;;;;;;5010619;28;20105;-76
2021/03/25 03:59:50;;;;;;;538.35;287.33;;;;;;;;;;5010857;28;20324;-76
2021/03/25 04:02:16;;;;;;;545.03;298.90;;;;;;;;;;5025519;28;20021;-76
2021/03/25 04:04:43;;;;;;;537.55;299.58;;;;;;;;;;5019125;28;20021;-75
2021/03/25 04:07:13;;;;;;;543.47;303.58;;;;;;;;;;5021286;28;20025;-77
2021/03/25 04:09:42;;;;;;;534.85;290.67;;;;;;;;;;5009808;28;20036;-76
2021/03/25 04:12:11;;;;;;;541.30;296.08;;;;;;;;;;5024663;28;20036;-77
2021/03/25 04:14:42;;;;;;;543.17;306.25;;;;;;;;;;5019581;28;20018;-75
2021/03/25 04:17:09;;;;;;;537.15;289.55;;;;;;;;;;5023818;28;20020;-76
2021/03/25 04:19:35;;;;;;;532.63;295.73;;;;;;;;;;5027249;28;20022;-76
2021/03/25 04:22:27;;;;;;;529.30;296.08;;;;;;;;;;5010227;28;20034;-76
2021/03/25 04:25:08;;;;;;;532.00;295.85;;;;;;;;;;5006536;28;20118;-76
2021/03/25 04:27:38;;;;;;;522.38;284.40;;;;;;;;;;5017230;28;20033;-75
2021/03/25 04:30:08;;;;;;;532.53;291.10;;;;;;;;;;5011178;28;20056;-77
2021/03/25 04:32:34;;;;;;;532.05;293.88;;;;;;;;;;5004642;28;20261;-75
2021/03/25 04:35:00;;;;;;;525.47;294.85;;;;;;;;;;5013042;28;20136;-76
2021/03/25 04:37:29;;;;;;;523.67;295.25;;;;;;;;;;5025825;28;20017;-76
2021/03/25 04:39:55;;;;;;;530.17;295.15;;;;;;;;;;5025444;28;20030;-75
2021/03/25 04:42:21;;;;;;;528.67;294.70;;;;;;;;;;5004721;28;20056;-76
2021/03/25 04:44:49;;;;;;;534.08;302.23;;;;;;;;;;5023245;28;20021;-77
2021/03/25 04:47:15;;;;;;;533.28;293.65;;;;;;;;;;5004521;28;20034;-76
2021/03/25 04:49:46;;;;;;;534.70;296.00;;;;;;;;;;5012893;28;20033;-76
2021/03/25 04:52:16;;;;;;;540.30;294.80;;;;;;;;;;5022118;28;20116;-76
2021/03/25 04:54:42;;;;;;;540.22;296.98;;;;;;;;;;5013212;28;20022;-75
2021/03/25 04:57:10;;;;;;;547.63;304.42;;;;;;;;;;5025792;28;20068;-75
2021/03/25 04:59:37;;;;;;;537.58;294.83;;;;;;;;;;5027709;28;20014;-75
2021/03/25 05:02:04;;;;;;;540.55;298.05;;;;;;;;;;5029720;28;20096;-75
2021/03/25 05:04:31;;;;;;;539.50;301.15;;;;;;;;;;5013550;28;20029;-75
2021/03/25 05:06:58;;;;;;;532.28;295.40;;;;;;;;;;5021586;28;20116;-76
2021/03/25 05:09:25;;;;;;;536.08;298.92;;;;;;;;;;5026476;28;20592;-75
2021/03/25 05:11:51;;;;;;;539.20;301.63;;;;;;;;;;5015347;28;20022;-75
2021/03/25 05:14:28;;;;;;;554.60;308.20;;;;;;;;;;5012098;28;20045;-75
2021/03/25 05:16:56;;;;;;;544.17;302.58;;;;;;;;;;5024715;28;20022;-76
2021/03/25 05:19:29;;;;;;;548.45;299.02;;;;;;;;;;5022856;28;20037;-76
2021/03/25 05:22:07;;;;;;;551.83;305.23;;;;;;;;;;5021855;28;20021;-75
2021/03/25 05:24:37;;;;;;;555.67;302.75;;;;;;;;;;5027688;28;20024;-75
2021/03/25 05:27:08;;;;;;;553.03;296.92;;;;;;;;;;5021787;28;20310;-76
2021/03/25 05:29:36;;;;;;;563.78;311.77;;;;;;;;;;5019247;28;20037;-76
2021/03/25 05:32:03;;;;;;;553.85;310.65;;;;;;;;;;5009613;28;20022;-75
2021/03/25 05:34:29;;;;;;;551.75;308.95;;;;;;;;;;5025430;28;20013;-75
2021/03/25 05:36:57;;;;;;;551.67;297.65;;;;;;;;;;5010553;28;20029;-76
2021/03/25 05:39:24;;;;;;;555.05;304.33;;;;;;;;;;5023680;28;20028;-75
2021/03/25 05:41:54;;;;;;;556.78;315.52;;;;;;;;;;5006649;28;20559;-75
2021/03/25 05:44:23;;;;;;;565.53;309.90;;;;;;;;;;5011176;28;20017;-75
2021/03/25 05:47:21;;;;;;;560.90;307.08;;;;;;;;;;5010752;28;20409;-77
2021/03/25 05:50:06;;;;;;;562.58;309.88;;;;;;;;;;5023963;28;20087;-77
2021/03/25 05:52:51;;;;;;;556.40;299.20;;;;;;;;;;5023254;28;20021;-76
2021/03/25 05:55:35;;;;;;;562.45;310.30;;;;;;;;;;5027202;28;20025;-75
2021/03/25 05:58:20;;;;;;;560.92;305.80;;;;;;;;;;5010684;28;20022;-77
2021/03/25 06:01:15;;;;;;;565.65;308.67;;;;;;;;;;5027377;28;20075;-75
2021/03/25 06:03:47;;;;;;;558.85;305.75;;;;;;;;;;5009855;28;20032;-76
2021/03/25 06:06:20;;;;;;;567.45;309.08;;;;;;;;;;5027711;28;20395;-75
2021/03/25 06:08:59;;;;;;;565.55;294.27;;;;;;;;;;5014349;28;20087;-75
2021/03/25 06:11:32;;;;;;;561.35;307.05;;;;;;;;;;5027871;28;20022;-75
2021/03/25 06:14:21;;;;;;;580.05;311.30;;;;;;;;;;5018281;28;20656;-76
2021/03/25 06:17:02;;;;;;;550.78;296.30;;;;;;;;;;5029747;28;20022;-75
2021/03/25 06:19:28;;;;;;;556.22;299.20;;;;;;;;;;5029126;28;20455;-76
2021/03/25 06:22:00;;;;;;;556.65;291.00;;;;;;;;;;5029257;28;20056;-74
2021/03/25 06:24:26;;;;;;;559.65;310.90;;;;;;;;;;5011470;28;20565;-75
2021/03/25 06:26:52;;;;;;;570.33;310.92;;;;;;;;;;5009551;28;20030;-75
2021/03/25 06:29:23;;;;;;;566.47;302.70;;;;;;;;;;5018774;28;20025;-76
2021/03/25 06:31:52;;;;;;;568.97;305.88;;;;;;;;;;5019572;28;21153;-75
2021/03/25 06:34:21;;;;;;;565.28;312.55;;;;;;;;;;5024110;28;20018;-75
2021/03/25 06:36:50;;;;;;;566.78;308.92;;;;;;;;;;5029431;28;20049;-75
2021/03/25 06:39:36;;;;;;;563.35;311.52;;;;;;;;;;5011424;28;20025;-75
2021/03/25 06:42:06;;;;;;;565.45;314.85;;;;;;;;;;5015787;28;20029;-76
2021/03/25 06:44:37;;;;;;;573.83;310.63;;;;;;;;;;5011031;28;20343;-76
2021/03/25 06:47:07;;;;;;;571.63;310.70;;;;;;;;;;5030093;28;20029;-75
2021/03/25 06:49:49;;;;;;;586.40;320.77;;;;;;;;;;5024268;28;20070;-76
2021/03/25 06:52:25;;;;;;;569.15;312.35;;;;;;;;;;5016730;28;20158;-75
2021/03/25 06:55:14;;;;;;;564.15;311.77;;;;;;;;;;5010713;28;20032;-76
2021/03/25 06:57:46;;;;;;;569.47;311.58;;;;;;;;;;5018316;28;20688;-75
2021/03/25 07:00:14;;;;;;;607.00;330.40;;;;;;;;;;5029113;28;20711;-75
2021/03/25 07:02:42;;;;;;;700.67;375.10;;;;;;;;;;5029109;28;20018;-75
2021/03/25 07:05:09;;;;;;;719.20;385.33;;;;;;;;;;5010131;28;20071;-75
2021/03/25 07:07:40;;;;;;;609.35;340.17;;;;;;;;;;5029956;28;20025;-76
2021/03/25 07:10:08;;;;;;;731.47;397.92;;;;;;;;;;5028502;28;20029;-76
2021/03/25 07:12:40;;;;;;;576.90;315.52;;;;;;;;;;5011185;28;20029;-74
2021/03/25 07:15:07;;;;;;;602.85;334.83;;;;;;;;;;5029399;28;20309;-75
2021/03/25 07:17:33;;;;;;;576.70;313.83;;;;;;;;;;5029550;28;20032;-75
2021/03/25 07:20:01;;;;;;;585.58;329.98;;;;;;;;;;5028298;28;20340;-76
2021/03/25 07:22:30;;;;;;;598.85;333.90;;;;;;;;;;5021031;28;20067;-75
2021/03/25 07:25:15;;;;;;;632.05;351.70;;;;;;;;;;5028105;28;20119;-75
2021/03/25 07:27:41;;;;;;;579.47;312.98;;;;;;;;;;5028574;28;20636;-77
2021/03/25 07:30:14;;;;;;;587.88;329.98;;;;;;;;;;5028267;28;20073;-75
2021/03/25 07:33:02;;;;;;;589.53;331.77;;;;;;;;;;5004423;28;20018;-77
2021/03/25 07:35:34;;;;;;;582.03;321.98;;;;;;;;;;5028378;28;20040;-76
2021/03/25 07:38:02;;;;;;;581.28;326.02;;;;;;;;;;5010666;28;20187;-76
2021/03/25 07:40:35;;;;;;;588.97;326.20;;;;;;;;;;5019238;28;20034;-75
2021/03/25 07:43:13;;;;;;;583.63;323.73;;;;;;;;;;5028731;28;20036;-76
2021/03/25 07:45:39;;;;;;;585.50;329.13;;;;;;;;;;5026663;28;20033;-75
2021/03/25 07:48:14;;;;;;;578.22;336.40;;;;;;;;;;5017725;28;20313;-75
2021/03/25 07:50:40;;;;;;;564.65;324.25;;;;;;;;;;5025944;28;20123;-76
2021/03/25 07:53:21;;;;;;;574.85;326.98;;;;;;;;;;5019678;28;20041;-75
2021/03/25 07:55:47;;;;;;;578.40;327.25;;;;;;;;;;5005131;28;20018;-74
2021/03/25 07:58:18;;;;;;;572.30;323.15;;;;;;;;;;5002800;28;20025;-74
2021/03/25 08:00:44;;;;;;;566.33;323.70;;;;;;;;;;5018135;28;20041;-75
2021/03/25 08:03:18;;;;;;;568.08;323.13;;;;;;;;;;5010916;28;20108;-74
2021/03/25 08:05:46;;;;;;;576.63;325.20;;;;;;;;;;5007086;28;20355;-74
2021/03/25 08:08:30;;;;;;;573.38;330.92;;;;;;;;;;5025907;28;20017;-73
2021/03/25 08:11:08;;;;;;;574.25;331.25;;;;;;;;;;5017247;28;20037;-73
2021/03/25 08:13:36;;;;;;;557.50;314.67;;;;;;;;;;5030977;28;20060;-74
2021/03/25 08:16:09;;;;;;;569.25;336.23;;;;;;;;;;5028733;28;20040;-74
2021/03/25 08:18:38;;;;;;;567.28;334.90;;;;;;;;;;5008263;28;20025;-75
2021/03/25 08:21:17;;;;;;;568.33;328.02;;;;;;;;;;5028833;28;20095;-75
2021/03/25 08:23:55;;;;;;;576.15;337.98;;;;;;;;;;5032443;28;20018;-73
2021/03/25 08:26:27;;;;;;;573.47;338.80;;;;;;;;;;5007101;28;20937;-75
2021/03/25 08:28:53;;;;;;;572.75;336.77;;;;;;;;;;5022007;28;20033;-74
2021/03/25 08:31:22;;;;;;;574.85;346.58;;;;;;;;;;5011907;28;20038;-74
2021/03/25 08:34:03;;;;;;;570.97;346.38;;;;;;;;;;5006158;28;20030;-75
2021/03/25 08:36:37;;;;;;;574.20;344.80;;;;;;;;;;5007429;28;20040;-76
2021/03/25 08:39:03;;;;;;;577.83;354.83;;;;;;;;;;4997303;28;20034;-74
2021/03/25 08:41:44;;;;;;;578.00;352.30;;;;;;;;;;4987317;28;20037;-75
2021/03/25 08:44:30;;;;;;;581.70;357.00;;;;;;;;;;4996916;28;20437;-75
2021/03/25 08:47:01;;;;;;;590.85;364.80;;;;;;;;;;5004674;28;20038;-74
2021/03/25 08:49:39;;;;;;;578.35;363.45;;;;;;;;;;4990383;28;20622;-74
2021/03/25 08:52:07;;;;;;;583.97;362.33;;;;;;;;;;5014369;28;20093;-75
2021/03/25 08:54:38;;;;;;;576.92;357.67;;;;;;;;;;4990413;28;20460;-75
2021/03/25 08:57:08;;;;;;;578.22;361.80;;;;;;;;;;4986811;28;20034;-75
2021/03/25 08:59:34;;;;;;;616.38;360.00;;;;;;;;;;5005970;28;20515;-75
2021/03/25 09:02:13;;;;;;;626.70;378.77;;;;;;;;;;4991111;28;20101;-75
2021/03/25 09:05:02;;;;;;;607.13;362.10;;;;;;;;;;5003458;28;20132;-75
2021/03/25 09:07:28;;;;;;;582.33;348.80;;;;;;;;;;4992434;28;20037;-75
2021/03/25 09:09:55;;;;;;;570.90;359.88;;;;;;;;;;5004296;28;20042;-75
2021/03/25 09:12:23;;;;;;;578.38;357.50;;;;;;;;;;5003246;28;20022;-76
2021/03/25 09:14:51;;;;;;;585.35;374.17;;;;;;;;;;4999856;28;20065;-75
2021/03/25 09:17:20;;;;;;;571.10;354.17;;;;;;;;;;5005241;28;20337;-75
2021/03/25 09:19:47;;;;;;;586.20;354.83;;;;;;;;;;4988882;28;20026;-76
2021/03/25 09:22:32;;;;;;;589.45;375.05;;;;;;;;;;4992273;28;20030;-74
2021/03/25 09:25:17;;;;;;;597.22;360.80;;;;;;;;;;5003610;28;20440;-75
2021/03/25 09:27:55;;;;;;;602.45;373.58;;;;;;;;;;5006366;28;20202;-75
2021/03/25 09:30:22;;;;;;;620.78;385.63;;;;;;;;;;5010239;28;20141;-74
2021/03/25 09:32:48;;;;;;;580.13;365.15;;;;;;;;;;5010727;28;20416;-75
2021/03/25 09:35:51;;;;;;;575.75;359.30;;;;;;;;;;5030635;28;20071;-77
2021/03/25 09:38:38;;;;;;;566.75;348.40;;;;;;;;;;5038823;28;20336;-75
2021/03/25 09:41:04;;;;;;;574.22;359.40;;;;;;;;;;5027152;28;20064;-75
2021/03/25 09:43:34;;;;;;;559.05;347.77;;;;;;;;;;5027057;28;20018;-75
2021/03/25 09:46:21;;;;;;;564.92;348.77;;;;;;;;;;5029144;28;20025;-76
2021/03/25 09:48:47;;;;;;;552.30;348.48;;;;;;;;;;5001420;28;20460;-75
2021/03/25 10:05:17;;;;;;;575.42;412.15;;;;;;;;;;5026366;23;20455;-75
2021/03/25 10:07:43;;;;;;;550.55;373.08;;;;;;;;;;4996380;28;20054;-76
2021/03/25 10:10:21;;;;;;;546.13;364.35;;;;;;;;;;4996930;28;20054;-77
2021/03/25 10:12:47;;;;;;;543.90;352.75;;;;;;;;;;4993540;28;20926;-75
2021/03/25 10:15:32;;;;;;;544.50;367.50;;;;;;;;;;4998641;28;20037;-76
2021/03/25 10:18:00;;;;;;;534.85;342.98;;;;;;;;;;5007735;28;20125;-76
2021/03/25 10:21:07;;;;;;;536.22;344.83;;;;;;;;;;5005463;28;20042;-77
2021/03/25 10:23:36;;;;;;;530.45;339.35;;;;;;;;;;4935791;29;20066;-76
2021/03/25 10:26:02;;;;;;;526.35;337.75;;;;;;;;;;4907047;29;20051;-75
2021/03/25 10:28:29;;;;;;;532.42;338.17;;;;;;;;;;4976715;28;20054;-76
2021/03/25 10:30:57;;;;;;;529.20;339.77;;;;;;;;;;5003352;28;20030;-75
2021/03/25 10:33:23;;;;;;;542.05;351.13;;;;;;;;;;5000508;28;20107;-75
2021/03/25 10:35:52;;;;;;;534.40;347.45;;;;;;;;;;5003562;28;20066;-75
2021/03/25 10:38:21;;;;;;;529.03;335.02;;;;;;;;;;4996192;28;20029;-76
2021/03/25 10:40:48;;;;;;;534.97;340.38;;;;;;;;;;4998304;28;20057;-77
2021/03/25 10:43:25;;;;;;;529.80;329.50;;;;;;;;;;5001476;28;20057;-75
2021/03/25 10:45:54;;;;;;;533.55;339.63;;;;;;;;;;5004744;28;20451;-74
2021/03/25 10:48:25;;;;;;;531.42;341.30;;;;;;;;;;5000021;28;20038;-75
2021/03/25 10:50:57;;;;;;;536.20;341.92;;;;;;;;;;5005487;28;20034;-76
2021/03/25 10:53:25;;;;;;;536.75;339.55;;;;;;;;;;5002205;28;20594;-76
2021/03/25 10:55:54;;;;;;;527.90;342.00;;;;;;;;;;4994224;28;20086;-76
2021/03/25 10:58:25;;;;;;;544.00;353.52;;;;;;;;;;4996414;28;20041;-75
2021/03/25 11:01:04;;;;;;;537.72;347.27;;;;;;;;;;4988907;28;20034;-76
2021/03/25 11:03:38;;;;;;;534.28;346.20;;;;;;;;;;4963997;28;20048;-77
2021/03/25 11:06:06;;;;;;;542.88;355.17;;;;;;;;;;4976880;28;20591;-77
2021/03/25 11:08:34;;;;;;;533.95;348.75;;;;;;;;;;4983962;28;20019;-76
2021/03/25 11:11:03;;;;;;;533.60;345.48;;;;;;;;;;4981657;28;20043;-76
2021/03/25 11:13:30;;;;;;;527.80;349.63;;;;;;;;;;4980357;28;20073;-76
2021/03/25 11:16:04;;;;;;;525.45;335.08;;;;;;;;;;4980796;28;20118;-76
2021/03/25 11:18:32;;;;;;;534.92;352.02;;;;;;;;;;4979287;28;20022;-76
2021/03/25 11:20:58;;;;;;;535.13;347.05;;;;;;;;;;4978737;28;20464;-76
2021/03/25 11:23:25;;;;;;;537.58;350.83;;;;;;;;;;4982154;28;20034;-73
2021/03/25 11:25:56;;;;;;;535.95;345.98;;;;;;;;;;4979912;28;20047;-76
2021/03/25 11:28:22;;;;;;;521.75;329.67;;;;;;;;;;4990920;28;20076;-77
2021/03/25 11:30:57;;;;;;;542.72;341.67;;;;;;;;;;4984165;28;20471;-75
2021/03/25 11:33:22;;;;;;;530.80;333.98;;;;;;;;;;4988288;28;20110;-76
2021/03/25 11:35:49;;;;;;;517.35;328.83;;;;;;;;;;4985489;28;20178;-76
2021/03/25 11:38:30;;;;;;;526.60;339.17;;;;;;;;;;5002954;28;20019;-76
2021/03/25 11:41:04;;;;;;;523.65;336.92;;;;;;;;;;4980926;28;20061;-77
2021/03/25 11:43:42;;;;;;;511.88;326.63;;;;;;;;;;4991160;28;20103;-75
2021/03/25 11:46:08;;;;;;;522.67;337.17;;;;;;;;;;4971197;28;20055;-75
2021/03/25 11:48:35;;;;;;;525.85;334.80;;;;;;;;;;4974888;28;20034;-76
2021/03/25 11:51:21;;;;;;;509.50;323.45;;;;;;;;;;4989354;28;20050;-77
2021/03/25 11:53:48;;;;;;;505.48;318.98;;;;;;;;;;4987832;28;20096;-75
2021/03/25 11:56:20;;;;;;;506.23;314.35;;;;;;;;;;4984713;28;20034;-76
2021/03/25 11:58:57;;;;;;;518.15;320.83;;;;;;;;;;4989558;28;20349;-76
2021/03/25 12:01:25;;;;;;;521.45;317.02;;;;;;;;;;4987009;28;20112;-75
2021/03/25 12:03:50;;;;;;;512.08;314.20;;;;;;;;;;4991210;28;20080;-75
2021/03/25 12:06:18;;;;;;;512.33;314.95;;;;;;;;;;4988666;28;20062;-76
2021/03/25 12:08:45;;;;;;;521.72;323.30;;;;;;;;;;4981813;28;20109;-73
2021/03/25 12:11:12;;;;;;;525.28;329.95;;;;;;;;;;4984691;28;20042;-76
2021/03/25 12:13:38;;;;;;;514.80;317.45;;;;;;;;;;4988397;28;20366;-75
2021/03/25 12:16:05;;;;;;;514.67;316.70;;;;;;;;;;4984469;28;20137;-76
2021/03/25 12:18:33;;;;;;;514.60;314.30;;;;;;;;;;4988952;28;20023;-76
2021/03/25 12:21:03;;;;;;;514.67;321.80;;;;;;;;;;4973839;28;20125;-76
2021/03/25 12:23:30;;;;;;;513.83;317.92;;;;;;;;;;4984829;28;20042;-74
2021/03/25 12:25:57;;;;;;;507.30;310.27;;;;;;;;;;4986410;28;20524;-74
2021/03/25 12:28:23;;;;;;;501.77;310.52;;;;;;;;;;4986592;28;20049;-74
2021/03/25 12:30:50;;;;;;;493.05;303.90;;;;;;;;;;4988350;28;20046;-74
2021/03/25 12:33:20;;;;;;;483.67;292.17;;;;;;;;;;4986303;28;20022;-76
2021/03/25 12:35:46;;;;;;;479.88;293.38;;;;;;;;;;4977830;28;20059;-75
2021/03/25 12:38:12;;;;;;;489.15;305.30;;;;;;;;;;4980251;28;20477;-75
2021/03/25 12:40:38;;;;;;;481.05;299.08;;;;;;;;;;4989941;28;20038;-74
2021/03/25 12:43:05;;;;;;;482.45;308.15;;;;;;;;;;4983847;28;20100;-74
2021/03/25 12:45:36;;;;;;;482.55;303.63;;;;;;;;;;4978121;28;20554;-75
2021/03/25 12:48:02;;;;;;;484.08;299.95;;;;;;;;;;4978795;28;20058;-75
2021/03/25 12:50:29;;;;;;;492.00;306.10;;;;;;;;;;4978936;28;20058;-75
2021/03/25 12:52:55;;;;;;;486.73;299.92;;;;;;;;;;4976117;28;20125;-75
2021/03/25 12:55:22;;;;;;;490.50;307.08;;;;;;;;;;4979483;28;20061;-75
2021/03/25 12:57:49;;;;;;;487.35;304.17;;;;;;;;;;4982913;28;20447;-72
2021/03/25 13:00:21;;;;;;;494.80;311.55;;;;;;;;;;4976798;28;20030;-72
2021/03/25 13:02:47;;;;;;;491.48;305.30;;;;;;;;;;4984845;28;20109;-78
2021/03/25 13:05:13;;;;;;;491.17;308.88;;;;;;;;;;4971667;28;20050;-77
2021/03/25 13:07:39;;;;;;;491.13;307.98;;;;;;;;;;4974279;28;20039;-77
2021/03/25 13:10:06;;;;;;;489.88;300.88;;;;;;;;;;4974310;28;20030;-76
2021/03/25 13:12:32;;;;;;;496.63;305.30;;;;;;;;;;4977980;28;20061;-75
2021/03/25 13:14:58;;;;;;;514.72;310.33;;;;;;;;;;4971757;28;20397;-77
2021/03/25 13:17:24;;;;;;;502.27;308.35;;;;;;;;;;4975698;28;20047;-75
2021/03/25 13:19:50;;;;;;;506.00;306.63;;;;;;;;;;4973549;28;20046;-76
2021/03/25 13:22:16;;;;;;;506.92;307.25;;;;;;;;;;4972460;28;20476;-75
2021/03/25 13:24:42;;;;;;;507.67;306.40;;;;;;;;;;4976485;28;20375;-76
2021/03/25 13:27:08;;;;;;;502.38;299.80;;;;;;;;;;4976049;28;20050;-75
2021/03/25 13:29:34;;;;;;;502.90;305.85;;;;;;;;;;4975732;28;20045;-78
2021/03/25 13:32:00;;;;;;;502.05;305.40;;;;;;;;;;4979659;28;20133;-78
2021/03/25 13:34:26;;;;;;;508.90;306.48;;;;;;;;;;4971204;28;20030;-76
2021/03/25 13:36:52;;;;;;;498.90;300.88;;;;;;;;;;4975619;28;20065;-77
2021/03/25 13:39:18;;;;;;;507.05;307.63;;;;;;;;;;4981763;28;20513;-77
2021/03/25 13:41:44;;;;;;;503.50;301.48;;;;;;;;;;4972926;28;20125;-77
2021/03/25 13:44:10;;;;;;;501.80;308.80;;;;;;;;;;4988665;28;20462;-75
2021/03/25 13:46:36;;;;;;;499.70;307.27;;;;;;;;;;4986932;28;20044;-77
2021/03/25 13:49:02;;;;;;;503.27;310.27;;;;;;;;;;4984259;28;20034;-77
2021/03/25 13:51:28;;;;;;;503.17;312.92;;;;;;;;;;4984251;28;20054;-77
2021/03/25 13:53:54;;;;;;;497.63;308.15;;;;;;;;;;4979777;28;20124;-77
2021/03/25 13:56:19;;;;;;;498.35;310.98;;;;;;;;;;4987400;28;20057;-76
2021/03/25 13:58:45;;;;;;;494.20;305.55;;;;;;;;;;4978869;28;20027;-76
2021/03/25 14:01:11;;;;;;;511.35;317.23;;;;;;;;;;4975617;28;20054;-77
2021/03/25 14:03:37;;;;;;;497.48;317.70;;;;;;;;;;4986632;28;20046;-76
2021/03/25 14:06:03;;;;;;;505.83;322.08;;;;;;;;;;4984296;28;20042;-76
2021/03/25 14:08:29;;;;;;;504.70;323.05;;;;;;;;;;4995523;28;20417;-80
2021/03/25 14:10:55;;;;;;;504.10;321.20;;;;;;;;;;4993998;28;20042;-81
2021/03/25 14:13:22;;;;;;;509.25;330.55;;;;;;;;;;4978025;28;20061;-79
2021/03/25 14:15:49;;;;;;;507.42;327.10;;;;;;;;;;4982418;28;20052;-76
2021/03/25 14:18:16;;;;;;;499.38;324.73;;;;;;;;;;4988071;28;20095;-77
2021/03/25 14:20:43;;;;;;;506.75;327.20;;;;;;;;;;4986771;28;20073;-77
2021/03/25 14:23:09;;;;;;;503.52;324.70;;;;;;;;;;4999536;28;20042;-75